createdAt,value
2022-08-20T00:00:39.737Z,2.90
2022-08-20T00:01:39.809Z,2.90
2022-08-20T00:02:39.718Z,2.60
2022-08-20T00:03:39.726Z,2.80
2022-08-20T00:04:39.864Z,3.20
2022-08-20T00:05:39.697Z,2.40
2022-08-20T00:06:39.698Z,2.90
2022-08-20T00:07:39.685Z,2.50
2022-08-20T00:08:39.669Z,2.00
2022-08-20T00:09:39.655Z,2.30
2022-08-20T00:10:39.636Z,2.60
2022-08-20T00:11:39.704Z,2.70
2022-08-20T00:12:39.617Z,2.50
2022-08-20T00:13:39.624Z,2.50
2022-08-20T00:14:39.601Z,2.40
2022-08-20T00:15:39.591Z,2.90
2022-08-20T00:16:39.577Z,2.60
2022-08-20T00:17:39.588Z,2.60
2022-08-20T00:18:39.565Z,2.50
2022-08-20T00:19:39.553Z,2.70
2022-08-20T00:20:39.538Z,2.50
2022-08-20T00:21:39.535Z,2.40
2022-08-20T00:22:39.534Z,2.90
2022-08-20T00:23:39.526Z,2.70
2022-08-20T00:24:39.496Z,2.80
2022-08-20T00:25:39.490Z,2.90
2022-08-20T00:26:51.737Z,2.40
2022-08-20T00:27:39.523Z,3.00
2022-08-20T00:28:39.465Z,2.50
2022-08-20T00:29:39.459Z,2.60
2022-08-20T00:30:39.437Z,2.70
2022-08-20T00:31:39.434Z,3.20
2022-08-20T00:32:39.452Z,2.30
2022-08-20T00:33:39.417Z,2.80
2022-08-20T00:34:39.395Z,2.50
2022-08-20T00:35:39.393Z,2.50
2022-08-20T00:36:39.387Z,2.80
2022-08-20T00:37:39.385Z,2.40
2022-08-20T00:38:39.362Z,2.30
2022-08-20T00:39:39.427Z,2.50
2022-08-20T00:40:39.345Z,2.80
2022-08-20T00:41:39.335Z,2.60
2022-08-20T00:42:39.341Z,2.60
2022-08-20T00:43:39.313Z,2.90
2022-08-20T00:44:39.297Z,2.30
2022-08-20T00:45:39.295Z,2.40
2022-08-20T00:46:39.310Z,2.70
2022-08-20T00:47:39.272Z,2.50
2022-08-20T00:48:39.259Z,3.30
2022-08-20T00:49:39.256Z,3.00
2022-08-20T00:50:39.242Z,2.50
2022-08-20T00:51:39.230Z,2.90
2022-08-20T00:52:39.233Z,2.50
2022-08-20T00:53:39.224Z,2.60
2022-08-20T00:54:39.200Z,2.30
2022-08-20T00:55:39.192Z,2.80
2022-08-20T00:56:39.176Z,2.20
2022-08-20T00:57:56.726Z,2.70
2022-08-20T00:58:39.163Z,2.30
2022-08-20T00:59:39.157Z,2.30
2022-08-20T01:00:39.142Z,2.30
2022-08-20T01:01:48.185Z,2.40
2022-08-20T01:02:39.136Z,2.50
2022-08-20T01:03:39.115Z,2.40
2022-08-20T01:04:39.101Z,2.80
2022-08-20T01:05:39.092Z,2.50
2022-08-20T01:06:39.078Z,2.80
2022-08-20T01:07:39.091Z,2.90
2022-08-20T01:08:39.059Z,2.60
2022-08-20T01:09:57.574Z,2.30
2022-08-20T01:10:39.063Z,2.50
2022-08-20T01:11:39.051Z,2.50
2022-08-20T01:12:39.035Z,2.80
2022-08-20T01:13:39.015Z,3.30
2022-08-20T01:14:38.996Z,2.80
2022-08-20T01:15:42.936Z,2.50
2022-08-20T01:16:39.606Z,2.80
2022-08-20T01:17:38.991Z,2.80
2022-08-20T01:18:38.960Z,3.10
2022-08-20T01:19:38.956Z,2.00
2022-08-20T01:20:38.938Z,2.50
2022-08-20T01:21:47.995Z,2.80
2022-08-20T01:22:38.937Z,3.40
2022-08-20T01:23:38.914Z,2.80
2022-08-20T01:24:38.898Z,2.50
2022-08-20T01:25:38.896Z,2.50
2022-08-20T01:26:38.877Z,2.40
2022-08-20T01:27:42.918Z,1.90
2022-08-20T01:28:38.857Z,2.70
2022-08-20T01:29:38.853Z,2.30
2022-08-20T01:30:38.838Z,2.80
2022-08-20T01:31:38.833Z,2.40
2022-08-20T01:32:38.840Z,2.30
2022-08-20T01:33:38.818Z,2.50
2022-08-20T01:34:38.799Z,2.30
2022-08-20T01:35:38.807Z,2.20
2022-08-20T01:36:41.882Z,2.00
2022-08-20T01:37:38.795Z,2.40
2022-08-20T01:38:38.761Z,2.60
2022-08-20T01:39:38.788Z,2.00
2022-08-20T01:40:38.740Z,2.10
2022-08-20T01:41:38.737Z,2.10
2022-08-20T01:42:38.734Z,2.50
2022-08-20T01:43:38.720Z,2.00
2022-08-20T01:44:38.700Z,2.40
2022-08-20T01:45:38.695Z,2.10
2022-08-20T01:46:43.711Z,2.00
2022-08-20T01:47:38.879Z,2.70
2022-08-20T01:48:38.661Z,2.40
2022-08-20T01:49:38.656Z,2.30
2022-08-20T01:50:38.641Z,2.60
2022-08-20T01:51:38.635Z,2.20
2022-08-20T01:52:38.634Z,2.30
2022-08-20T01:53:38.619Z,2.70
2022-08-20T01:54:38.600Z,2.50
2022-08-20T01:55:38.597Z,2.90
2022-08-20T01:56:38.581Z,2.10
2022-08-20T01:57:38.585Z,2.90
2022-08-20T01:58:38.558Z,2.60
2022-08-20T01:59:38.554Z,2.20
2022-08-20T02:00:38.549Z,2.50
2022-08-20T02:01:45.825Z,2.60
2022-08-20T02:02:38.536Z,2.60
2022-08-20T02:03:42.921Z,2.80
2022-08-20T02:04:38.508Z,3.10
2022-08-20T02:05:38.501Z,2.80
2022-08-20T02:06:38.484Z,2.70
2022-08-20T02:07:38.489Z,2.80
2022-08-20T02:08:38.464Z,2.30
2022-08-20T02:09:38.452Z,2.60
2022-08-20T02:10:38.448Z,2.80
2022-08-20T02:11:38.441Z,2.80
2022-08-20T02:12:38.434Z,2.70
2022-08-20T02:13:38.422Z,3.00
2022-08-20T02:14:38.400Z,3.30
2022-08-20T02:15:39.734Z,2.80
2022-08-20T02:16:38.380Z,2.70
2022-08-20T02:17:38.385Z,2.80
2022-08-20T02:18:38.361Z,3.00
2022-08-20T02:19:38.368Z,2.60
2022-08-20T02:20:38.430Z,3.20
2022-08-20T02:21:38.337Z,3.10
2022-08-20T02:22:38.337Z,2.90
2022-08-20T02:23:38.316Z,2.20
2022-08-20T02:24:38.303Z,2.50
2022-08-20T02:25:38.309Z,2.90
2022-08-20T02:26:38.290Z,2.90
2022-08-20T02:27:38.308Z,2.10
2022-08-20T02:28:38.266Z,3.10
2022-08-20T02:29:38.255Z,3.10
2022-08-20T02:30:38.240Z,2.50
2022-08-20T02:31:38.235Z,3.00
2022-08-20T02:32:38.237Z,2.80
2022-08-20T02:33:39.230Z,3.00
2022-08-20T02:34:38.200Z,2.60
2022-08-20T02:35:38.200Z,3.10
2022-08-20T02:36:38.179Z,3.00
2022-08-20T02:37:38.189Z,3.40
2022-08-20T02:38:38.159Z,2.80
2022-08-20T02:39:38.180Z,3.10
2022-08-20T02:40:38.142Z,2.90
2022-08-20T02:41:38.144Z,3.00
2022-08-20T02:42:38.135Z,3.40
2022-08-20T02:43:38.115Z,3.10
2022-08-20T02:44:38.108Z,3.00
2022-08-20T02:45:38.094Z,2.50
2022-08-20T02:46:38.085Z,2.40
2022-08-20T02:47:38.092Z,3.00
2022-08-20T02:48:38.061Z,3.30
2022-08-20T02:49:38.059Z,3.30
2022-08-20T02:50:38.039Z,3.10
2022-08-20T02:51:38.036Z,2.80
2022-08-20T02:52:38.035Z,2.90
2022-08-20T02:53:38.015Z,2.30
2022-08-20T02:54:38.002Z,2.80
2022-08-20T02:55:37.997Z,3.80
2022-08-20T02:56:37.982Z,3.00
2022-08-20T02:57:37.992Z,2.50
2022-08-20T02:58:37.961Z,2.50
2022-08-20T02:59:37.956Z,3.20
2022-08-20T03:00:38.774Z,2.40
2022-08-20T03:01:38.006Z,2.90
2022-08-20T03:02:37.933Z,2.90
2022-08-20T03:03:37.920Z,2.90
2022-08-20T03:04:37.901Z,3.00
2022-08-20T03:05:38.075Z,3.20
2022-08-20T03:06:37.905Z,4.00
2022-08-20T03:07:37.877Z,3.10
2022-08-20T03:08:37.868Z,3.40
2022-08-20T03:09:37.855Z,3.10
2022-08-20T03:10:37.861Z,3.10
2022-08-20T03:11:37.848Z,2.70
2022-08-20T03:12:37.824Z,2.80
2022-08-20T03:13:37.824Z,3.40
2022-08-20T03:14:37.800Z,2.60
2022-08-20T03:15:37.795Z,2.80
2022-08-20T03:16:37.799Z,2.90
2022-08-20T03:17:37.777Z,3.00
2022-08-20T03:18:37.761Z,3.10
2022-08-20T03:19:37.754Z,3.00
2022-08-20T03:20:37.742Z,3.30
2022-08-20T03:21:37.750Z,3.30
2022-08-20T03:22:37.720Z,2.90
2022-08-20T03:23:37.715Z,3.10
2022-08-20T03:24:37.703Z,3.40
2022-08-20T03:25:37.694Z,2.50
2022-08-20T03:26:37.698Z,2.60
2022-08-20T03:27:37.678Z,2.50
2022-08-20T03:28:37.661Z,2.50
2022-08-20T03:29:37.650Z,3.10
2022-08-20T03:30:37.644Z,2.40
2022-08-20T03:31:37.650Z,1.80
2022-08-20T03:32:37.627Z,2.60
2022-08-20T03:33:37.610Z,2.00
2022-08-20T03:34:37.611Z,2.50
2022-08-20T03:35:37.594Z,2.30
2022-08-20T03:36:37.600Z,2.60
2022-08-20T03:37:37.577Z,2.50
2022-08-20T03:38:37.565Z,2.90
2022-08-20T03:39:37.621Z,2.20
2022-08-20T03:40:37.545Z,2.20
2022-08-20T03:41:37.543Z,2.20
2022-08-20T03:42:37.526Z,3.40
2022-08-20T03:43:37.518Z,2.50
2022-08-20T03:44:37.508Z,2.50
2022-08-20T03:45:37.492Z,3.10
2022-08-20T03:46:37.515Z,3.80
2022-08-20T03:47:37.496Z,2.60
2022-08-20T03:48:37.468Z,2.80
2022-08-20T03:49:37.453Z,2.40
2022-08-20T03:50:37.448Z,2.40
2022-08-20T03:51:57.224Z,2.40
2022-08-20T03:52:37.429Z,3.00
2022-08-20T03:53:37.412Z,3.50
2022-08-20T03:54:37.405Z,3.30
2022-08-20T03:55:37.392Z,3.00
2022-08-20T03:56:37.413Z,3.10
2022-08-20T03:57:37.381Z,2.60
2022-08-20T03:58:37.366Z,3.20
2022-08-20T03:59:37.352Z,3.00
2022-08-20T04:00:37.349Z,3.10
2022-08-20T04:01:46.246Z,3.60
2022-08-20T04:02:37.332Z,3.20
2022-08-20T04:03:37.313Z,3.50
2022-08-20T04:04:37.315Z,3.70
2022-08-20T04:05:37.297Z,3.10
2022-08-20T04:06:37.302Z,3.40
2022-08-20T04:07:37.271Z,3.40
2022-08-20T04:08:37.267Z,3.50
2022-08-20T04:09:37.252Z,3.40
2022-08-20T04:10:37.249Z,3.10
2022-08-20T04:11:37.244Z,3.70
2022-08-20T04:12:37.225Z,4.00
2022-08-20T04:13:41.466Z,3.50
2022-08-20T04:14:37.211Z,3.80
2022-08-20T04:15:37.191Z,3.50
2022-08-20T04:16:37.201Z,4.00
2022-08-20T04:17:37.172Z,3.40
2022-08-20T04:18:37.171Z,3.40
2022-08-20T04:19:37.152Z,3.50
2022-08-20T04:20:37.159Z,3.90
2022-08-20T04:21:37.133Z,3.50
2022-08-20T04:22:37.126Z,4.00
2022-08-20T04:23:37.112Z,3.20
2022-08-20T04:24:37.112Z,3.40
2022-08-20T04:25:37.109Z,3.50
2022-08-20T04:26:37.096Z,3.00
2022-08-20T04:27:37.070Z,3.90
2022-08-20T04:28:37.068Z,3.00
2022-08-20T04:29:37.053Z,3.60
2022-08-20T04:30:37.061Z,3.00
2022-08-20T04:31:37.044Z,3.60
2022-08-20T04:32:37.026Z,3.30
2022-08-20T04:33:37.014Z,3.40
2022-08-20T04:34:37.019Z,3.50
2022-08-20T04:35:37.012Z,2.90
2022-08-20T04:36:36.987Z,3.50
2022-08-20T04:37:36.973Z,2.50
2022-08-20T04:38:48.113Z,3.30
2022-08-20T04:39:36.994Z,3.40
2022-08-20T04:40:36.962Z,3.10
2022-08-20T04:41:36.931Z,2.80
2022-08-20T04:42:36.928Z,2.40
2022-08-20T04:43:36.913Z,2.70
2022-08-20T04:44:36.905Z,2.70
2022-08-20T04:45:36.918Z,2.50
2022-08-20T04:46:36.887Z,3.20
2022-08-20T04:47:36.884Z,2.80
2022-08-20T04:48:36.865Z,2.50
2022-08-20T04:49:36.867Z,2.00
2022-08-20T04:50:36.849Z,2.50
2022-08-20T04:51:37.116Z,2.60
2022-08-20T04:52:36.827Z,2.20
2022-08-20T04:53:36.816Z,2.00
2022-08-20T04:54:36.809Z,2.30
2022-08-20T04:55:36.812Z,1.90
2022-08-20T04:56:36.788Z,1.80
2022-08-20T04:57:36.771Z,2.00
2022-08-20T04:58:36.773Z,2.30
2022-08-20T04:59:36.752Z,2.00
2022-08-20T05:00:36.752Z,2.40
2022-08-20T05:01:36.862Z,2.20
2022-08-20T05:02:36.746Z,2.70
2022-08-20T05:03:36.726Z,2.30
2022-08-20T05:04:36.710Z,2.60
2022-08-20T05:05:36.693Z,2.50
2022-08-20T05:06:36.704Z,2.80
2022-08-20T05:07:36.672Z,2.90
2022-08-20T05:08:36.674Z,2.40
2022-08-20T05:09:44.041Z,2.30
2022-08-20T05:10:36.664Z,2.50
2022-08-20T05:11:37.103Z,1.80
2022-08-20T05:12:36.633Z,2.30
2022-08-20T05:13:36.625Z,2.30
2022-08-20T05:14:36.607Z,2.30
2022-08-20T05:15:36.593Z,3.00
2022-08-20T05:16:36.617Z,2.50
2022-08-20T05:17:36.574Z,2.80
2022-08-20T05:18:36.571Z,2.70
2022-08-20T05:19:38.894Z,2.60
2022-08-20T05:20:36.548Z,2.70
2022-08-20T05:21:36.558Z,2.70
2022-08-20T05:22:36.537Z,2.70
2022-08-20T05:23:36.512Z,2.60
2022-08-20T05:24:36.508Z,2.90
2022-08-20T05:25:36.502Z,2.40
2022-08-20T05:26:36.521Z,2.90
2022-08-20T05:27:36.474Z,2.00
2022-08-20T05:28:36.971Z,2.20
2022-08-20T05:29:36.489Z,2.30
2022-08-20T05:30:36.514Z,3.00
2022-08-20T05:31:36.448Z,2.40
2022-08-20T05:32:44.826Z,2.60
2022-08-20T05:33:36.419Z,2.60
2022-08-20T05:34:36.410Z,2.40
2022-08-20T05:35:36.398Z,2.90
2022-08-20T05:36:36.402Z,2.30
2022-08-20T05:37:36.375Z,2.40
2022-08-20T05:38:36.369Z,2.00
2022-08-20T05:39:37.608Z,2.30
2022-08-20T05:40:36.358Z,2.40
2022-08-20T05:41:36.355Z,2.40
2022-08-20T05:42:36.332Z,2.40
2022-08-20T05:43:36.314Z,2.30
2022-08-20T05:44:36.313Z,2.40
2022-08-20T05:45:36.295Z,2.50
2022-08-20T05:46:36.313Z,2.40
2022-08-20T05:47:38.587Z,2.70
2022-08-20T05:48:36.272Z,2.60
2022-08-20T05:49:36.256Z,2.70
2022-08-20T05:50:36.246Z,2.60
2022-08-20T05:51:36.247Z,2.50
2022-08-20T05:52:36.231Z,2.30
2022-08-20T05:53:36.214Z,2.20
2022-08-20T05:54:36.209Z,2.30
2022-08-20T05:55:36.199Z,2.60
2022-08-20T05:56:36.200Z,2.40
2022-08-20T05:57:36.174Z,2.10
2022-08-20T05:58:36.206Z,2.20
2022-08-20T05:59:36.154Z,2.70
2022-08-20T06:00:36.154Z,2.80
2022-08-20T06:01:36.240Z,2.20
2022-08-20T06:02:36.128Z,2.40
2022-08-20T06:03:36.127Z,2.40
2022-08-20T06:04:36.108Z,2.30
2022-08-20T06:05:36.094Z,2.30
2022-08-20T06:06:46.329Z,2.70
2022-08-20T06:07:36.091Z,2.30
2022-08-20T06:08:36.070Z,2.40
2022-08-20T06:09:36.059Z,2.70
2022-08-20T06:10:36.054Z,2.90
2022-08-20T06:11:37.477Z,2.40
2022-08-20T06:12:36.041Z,2.40
2022-08-20T06:13:36.023Z,2.30
2022-08-20T06:14:36.017Z,2.40
2022-08-20T06:15:35.994Z,2.20
2022-08-20T06:16:37.296Z,2.20
2022-08-20T06:17:39.243Z,2.40
2022-08-20T06:18:35.971Z,2.30
2022-08-20T06:19:35.953Z,2.10
2022-08-20T06:20:35.950Z,2.30
2022-08-20T06:21:35.954Z,2.30
2022-08-20T06:22:35.986Z,2.10
2022-08-20T06:23:54.180Z,2.30
2022-08-20T06:24:35.919Z,1.80
2022-08-20T06:25:37.940Z,2.30
2022-08-20T06:26:35.918Z,2.10
2022-08-20T06:27:35.887Z,2.20
2022-08-20T06:28:35.877Z,2.30
2022-08-20T06:29:35.865Z,2.10
2022-08-20T06:30:35.851Z,2.10
2022-08-20T06:31:35.857Z,1.90
2022-08-20T06:32:35.843Z,2.30
2022-08-20T06:33:35.822Z,2.10
2022-08-20T06:34:35.823Z,1.90
2022-08-20T06:35:35.813Z,2.10
2022-08-20T06:36:35.815Z,2.10
2022-08-20T06:37:35.790Z,2.40
2022-08-20T06:38:35.775Z,2.30
2022-08-20T06:39:35.801Z,2.20
2022-08-20T06:40:35.762Z,2.10
2022-08-20T06:41:37.148Z,2.30
2022-08-20T06:42:36.455Z,2.20
2022-08-20T06:43:35.742Z,1.60
2022-08-20T06:44:35.766Z,1.90
2022-08-20T06:45:35.715Z,1.70
2022-08-20T06:46:35.709Z,2.00
2022-08-20T06:47:35.686Z,1.70
2022-08-20T06:48:35.700Z,1.70
2022-08-20T06:49:35.661Z,2.10
2022-08-20T06:50:35.654Z,2.00
2022-08-20T06:51:35.697Z,1.90
2022-08-20T06:52:52.299Z,2.00
2022-08-20T06:53:35.633Z,2.50
2022-08-20T06:54:35.617Z,2.00
2022-08-20T06:55:35.679Z,2.10
2022-08-20T06:56:35.612Z,2.60
2022-08-20T06:57:35.633Z,2.10
2022-08-20T06:58:37.302Z,2.10
2022-08-20T06:59:35.624Z,1.70
2022-08-20T07:00:35.662Z,2.00
2022-08-20T07:01:35.770Z,2.10
2022-08-20T07:02:35.538Z,2.40
2022-08-20T07:03:35.532Z,2.00
2022-08-20T07:04:35.517Z,2.30
2022-08-20T07:05:35.504Z,2.30
2022-08-20T07:06:35.514Z,2.10
2022-08-20T07:07:35.484Z,2.40
2022-08-20T07:08:35.485Z,2.60
2022-08-20T07:09:35.468Z,2.70
2022-08-20T07:10:35.460Z,2.40
2022-08-20T07:11:35.454Z,2.20
2022-08-20T07:12:35.451Z,2.30
2022-08-20T07:13:35.447Z,2.00
2022-08-20T07:14:35.422Z,2.30
2022-08-20T07:15:35.419Z,2.40
2022-08-20T07:16:35.415Z,2.60
2022-08-20T07:17:35.397Z,2.00
2022-08-20T07:18:35.384Z,2.00
2022-08-20T07:19:35.373Z,2.80
2022-08-20T07:20:35.364Z,2.50
2022-08-20T07:21:35.361Z,2.80
2022-08-20T07:22:41.342Z,2.70
2022-08-20T07:23:35.334Z,2.50
2022-08-20T07:24:37.862Z,2.50
2022-08-20T07:25:35.315Z,2.10
2022-08-20T07:26:35.328Z,2.90
2022-08-20T07:27:35.290Z,2.10
2022-08-20T07:28:35.284Z,2.40
2022-08-20T07:29:35.274Z,2.70
2022-08-20T07:30:56.154Z,2.20
2022-08-20T07:31:35.280Z,2.60
2022-08-20T07:32:36.809Z,1.80
2022-08-20T07:33:35.229Z,2.60
2022-08-20T07:34:35.226Z,2.50
2022-08-20T07:35:35.212Z,2.40
2022-08-20T07:36:35.221Z,3.30
2022-08-20T07:37:35.193Z,2.60
2022-08-20T07:38:35.190Z,2.70
2022-08-20T07:39:35.204Z,2.10
2022-08-20T07:40:35.171Z,2.70
2022-08-20T07:41:35.183Z,2.60
2022-08-20T07:42:35.147Z,3.00
2022-08-20T07:43:35.140Z,2.20
2022-08-20T07:44:35.130Z,2.50
2022-08-20T07:45:35.118Z,2.40
2022-08-20T07:46:35.118Z,2.80
2022-08-20T07:47:35.098Z,2.40
2022-08-20T07:48:35.084Z,2.50
2022-08-20T07:49:35.077Z,2.70
2022-08-20T07:50:35.077Z,2.40
2022-08-20T07:51:35.071Z,2.00
2022-08-20T07:52:35.045Z,2.30
2022-08-20T07:53:36.167Z,2.40
2022-08-20T07:54:35.024Z,2.50
2022-08-20T07:55:35.020Z,2.50
2022-08-20T07:56:35.020Z,2.20
2022-08-20T07:57:34.996Z,1.90
2022-08-20T07:58:34.987Z,2.40
2022-08-20T07:59:34.979Z,2.50
2022-08-20T08:00:34.982Z,2.70
2022-08-20T08:01:34.975Z,1.70
2022-08-20T08:02:34.946Z,2.20
2022-08-20T08:03:39.865Z,2.10
2022-08-20T08:04:34.932Z,1.90
2022-08-20T08:05:34.921Z,2.00
2022-08-20T08:06:34.922Z,2.20
2022-08-20T08:07:34.899Z,1.70
2022-08-20T08:08:34.886Z,1.90
2022-08-20T08:09:34.882Z,2.40
2022-08-20T08:10:34.869Z,2.40
2022-08-20T08:11:34.873Z,2.70
2022-08-20T08:12:34.849Z,2.50
2022-08-20T08:13:34.860Z,2.70
2022-08-20T08:14:34.827Z,1.80
2022-08-20T08:15:34.822Z,1.90
2022-08-20T08:16:34.848Z,1.90
2022-08-20T08:17:34.802Z,2.60
2022-08-20T08:18:34.785Z,2.50
2022-08-20T08:19:34.781Z,2.40
2022-08-20T08:20:34.770Z,2.20
2022-08-20T08:21:34.785Z,2.20
2022-08-20T08:22:34.747Z,2.30
2022-08-20T08:23:34.741Z,2.00
2022-08-20T08:24:34.731Z,3.20
2022-08-20T08:25:34.721Z,2.30
2022-08-20T08:26:34.737Z,2.00
2022-08-20T08:27:34.705Z,2.10
2022-08-20T08:28:34.688Z,2.10
2022-08-20T08:29:34.698Z,1.90
2022-08-20T08:30:34.668Z,2.00
2022-08-20T08:31:34.676Z,2.20
2022-08-20T08:32:34.646Z,1.90
2022-08-20T08:33:34.641Z,2.10
2022-08-20T08:34:34.932Z,2.20
2022-08-20T08:35:34.625Z,2.10
2022-08-20T08:36:34.621Z,1.80
2022-08-20T08:37:34.604Z,2.30
2022-08-20T08:38:34.599Z,1.90
2022-08-20T08:39:35.094Z,2.00
2022-08-20T08:40:34.568Z,2.30
2022-08-20T08:41:34.577Z,2.00
2022-08-20T08:42:34.552Z,1.60
2022-08-20T08:43:34.546Z,2.30
2022-08-20T08:44:34.536Z,2.40
2022-08-20T08:45:34.524Z,2.10
2022-08-20T08:46:34.537Z,2.30
2022-08-20T08:47:34.505Z,2.50
2022-08-20T08:48:34.494Z,2.50
2022-08-20T08:49:38.139Z,2.30
2022-08-20T08:50:53.181Z,2.10
2022-08-20T08:51:34.528Z,1.90
2022-08-20T08:52:34.452Z,2.20
2022-08-20T08:53:34.464Z,2.30
2022-08-20T08:54:34.430Z,2.20
2022-08-20T08:55:34.427Z,2.30
2022-08-20T08:56:34.430Z,1.90
2022-08-20T08:57:34.409Z,2.20
2022-08-20T08:58:34.411Z,1.90
2022-08-20T08:59:52.524Z,2.10
2022-08-20T09:00:34.381Z,2.10
2022-08-20T09:01:53.970Z,2.70
2022-08-20T09:02:34.464Z,2.40
2022-08-20T09:03:34.349Z,2.40
2022-08-20T09:04:34.347Z,2.70
2022-08-20T09:05:34.330Z,2.60
2022-08-20T09:06:34.328Z,2.50
2022-08-20T09:07:34.310Z,2.40
2022-08-20T09:08:34.295Z,2.10
2022-08-20T09:09:34.287Z,2.10
2022-08-20T09:10:34.287Z,2.10
2022-08-20T09:11:34.284Z,1.90
2022-08-20T09:12:34.254Z,2.40
2022-08-20T09:13:34.251Z,2.00
2022-08-20T09:14:34.268Z,2.50
2022-08-20T09:15:34.231Z,2.40
2022-08-20T09:16:52.146Z,2.20
2022-08-20T09:17:34.214Z,2.30
2022-08-20T09:18:34.195Z,2.10
2022-08-20T09:19:34.193Z,2.00
2022-08-20T09:20:34.179Z,1.70
2022-08-20T09:21:34.187Z,2.30
2022-08-20T09:22:34.164Z,2.60
2022-08-20T09:23:34.152Z,1.70
2022-08-20T09:24:34.141Z,2.00
2022-08-20T09:25:34.131Z,2.40
2022-08-20T09:26:38.568Z,1.80
2022-08-20T09:27:34.108Z,2.10
2022-08-20T09:28:35.029Z,2.00
2022-08-20T09:29:34.094Z,1.60
2022-08-20T09:30:34.080Z,1.70
2022-08-20T09:31:34.083Z,1.50
2022-08-20T09:32:34.058Z,1.90
2022-08-20T09:33:34.051Z,2.10
2022-08-20T09:34:34.038Z,1.80
2022-08-20T09:35:34.034Z,1.80
2022-08-20T09:36:34.039Z,1.50
2022-08-20T09:37:37.466Z,1.80
2022-08-20T09:38:33.995Z,1.90
2022-08-20T09:39:34.042Z,1.80
2022-08-20T09:40:33.987Z,1.50
2022-08-20T09:41:34.305Z,1.80
2022-08-20T09:42:38.795Z,1.80
2022-08-20T09:43:33.956Z,1.90
2022-08-20T09:44:33.939Z,1.80
2022-08-20T09:45:33.939Z,2.10
2022-08-20T09:46:33.930Z,1.80
2022-08-20T09:47:33.915Z,1.90
2022-08-20T09:48:33.898Z,1.80
2022-08-20T09:49:33.891Z,2.00
2022-08-20T09:50:33.880Z,1.70
2022-08-20T09:51:33.886Z,1.80
2022-08-20T09:52:35.861Z,1.80
2022-08-20T09:53:33.863Z,2.10
2022-08-20T09:54:33.840Z,1.60
2022-08-20T09:55:33.844Z,1.90
2022-08-20T09:56:33.839Z,2.00
2022-08-20T09:57:33.823Z,1.40
2022-08-20T09:58:33.804Z,1.30
2022-08-20T09:59:33.796Z,1.90
2022-08-20T10:00:33.794Z,1.80
2022-08-20T10:01:33.837Z,1.80
2022-08-20T10:02:33.760Z,1.50
2022-08-20T10:03:33.757Z,1.80
2022-08-20T10:04:33.771Z,1.90
2022-08-20T10:05:33.739Z,1.70
2022-08-20T10:06:37.709Z,1.90
2022-08-20T10:07:33.716Z,2.20
2022-08-20T10:08:33.702Z,1.90
2022-08-20T10:09:33.720Z,1.50
2022-08-20T10:10:33.685Z,2.10
2022-08-20T10:11:33.696Z,1.60
2022-08-20T10:12:33.673Z,1.90
2022-08-20T10:13:33.657Z,1.90
2022-08-20T10:14:33.645Z,2.30
2022-08-20T10:15:33.700Z,2.10
2022-08-20T10:16:33.639Z,2.30
2022-08-20T10:17:33.625Z,1.80
2022-08-20T10:18:33.634Z,1.80
2022-08-20T10:19:33.609Z,2.20
2022-08-20T10:20:33.586Z,2.30
2022-08-20T10:21:38.120Z,1.80
2022-08-20T10:22:33.577Z,2.20
2022-08-20T10:23:33.560Z,2.00
2022-08-20T10:24:33.549Z,1.70
2022-08-20T10:25:33.564Z,2.00
2022-08-20T10:26:33.526Z,1.90
2022-08-20T10:27:33.557Z,1.80
2022-08-20T10:28:33.506Z,1.60
2022-08-20T10:29:33.500Z,2.00
2022-08-20T10:30:33.490Z,1.90
2022-08-20T10:31:33.494Z,1.80
2022-08-20T10:32:33.489Z,1.70
2022-08-20T10:33:33.461Z,2.00
2022-08-20T10:34:33.448Z,2.00
2022-08-20T10:35:33.443Z,1.80
2022-08-20T10:36:33.425Z,2.10
2022-08-20T10:37:33.434Z,1.80
2022-08-20T10:38:33.437Z,2.00
2022-08-20T10:39:33.442Z,1.50
2022-08-20T10:40:33.387Z,2.10
2022-08-20T10:41:37.159Z,2.10
2022-08-20T10:42:33.393Z,2.00
2022-08-20T10:43:33.363Z,2.10
2022-08-20T10:44:33.355Z,1.90
2022-08-20T10:45:33.349Z,2.60
2022-08-20T10:46:33.335Z,2.20
2022-08-20T10:47:33.343Z,1.90
2022-08-20T10:48:33.310Z,2.10
2022-08-20T10:49:33.306Z,2.30
2022-08-20T10:50:33.298Z,1.60
2022-08-20T10:51:33.301Z,1.70
2022-08-20T10:52:33.284Z,2.10
2022-08-20T10:53:33.267Z,1.70
2022-08-20T10:54:33.255Z,1.90
2022-08-20T10:55:33.248Z,1.50
2022-08-20T10:56:33.233Z,2.00
2022-08-20T10:57:33.240Z,2.30
2022-08-20T10:58:39.505Z,2.10
2022-08-20T10:59:33.216Z,1.80
2022-08-20T11:00:33.195Z,2.30
2022-08-20T11:01:36.684Z,2.00
2022-08-20T11:02:33.192Z,2.50
2022-08-20T11:03:33.169Z,1.90
2022-08-20T11:04:33.155Z,2.00
2022-08-20T11:05:33.147Z,2.20
2022-08-20T11:06:33.146Z,1.60
2022-08-20T11:07:54.854Z,1.80
2022-08-20T11:08:34.460Z,1.80
2022-08-20T11:09:33.112Z,2.40
2022-08-20T11:10:33.093Z,1.60
2022-08-20T11:11:33.102Z,1.70
2022-08-20T11:12:33.083Z,2.00
2022-08-20T11:13:33.078Z,1.90
2022-08-20T11:14:33.064Z,1.60
2022-08-20T11:15:33.054Z,1.80
2022-08-20T11:16:33.053Z,2.00
2022-08-20T11:17:33.035Z,1.90
2022-08-20T11:18:33.016Z,1.80
2022-08-20T11:19:33.019Z,2.20
2022-08-20T11:20:33.021Z,2.00
2022-08-20T11:21:33.022Z,2.50
2022-08-20T11:22:32.978Z,2.10
2022-08-20T11:23:32.972Z,1.50
2022-08-20T11:24:32.962Z,2.40
2022-08-20T11:25:32.959Z,2.90
2022-08-20T11:26:32.939Z,2.30
2022-08-20T11:27:32.948Z,1.80
2022-08-20T11:28:32.917Z,2.30
2022-08-20T11:29:34.077Z,1.90
2022-08-20T11:30:32.901Z,1.80
2022-08-20T11:31:32.895Z,2.60
2022-08-20T11:32:32.897Z,2.00
2022-08-20T11:33:32.880Z,1.80
2022-08-20T11:34:32.861Z,1.90
2022-08-20T11:35:49.933Z,1.90
2022-08-20T11:36:32.849Z,2.20
2022-08-20T11:37:32.856Z,1.40
2022-08-20T11:38:32.833Z,1.80
2022-08-20T11:39:32.827Z,2.20
2022-08-20T11:40:32.805Z,1.60
2022-08-20T11:41:32.799Z,1.90
2022-08-20T11:42:32.801Z,2.10
2022-08-20T11:43:32.780Z,2.30
2022-08-20T11:44:32.764Z,2.00
2022-08-20T11:45:32.757Z,1.90
2022-08-20T11:46:32.743Z,2.60
2022-08-20T11:47:32.752Z,1.60
2022-08-20T11:48:32.726Z,2.20
2022-08-20T11:49:32.719Z,2.40
2022-08-20T11:50:32.702Z,2.40
2022-08-20T11:51:49.238Z,1.90
2022-08-20T11:52:32.706Z,2.00
2022-08-20T11:53:32.682Z,2.00
2022-08-20T11:54:32.666Z,1.60
2022-08-20T11:55:32.750Z,1.90
2022-08-20T11:56:32.655Z,2.10
2022-08-20T11:57:32.652Z,2.40
2022-08-20T11:58:32.627Z,2.00
2022-08-20T11:59:32.619Z,2.00
2022-08-20T12:00:34.163Z,2.50
2022-08-20T12:01:32.596Z,1.90
2022-08-20T12:02:32.737Z,2.00
2022-08-20T12:03:32.577Z,2.20
2022-08-20T12:04:33.384Z,1.90
2022-08-20T12:05:32.561Z,1.80
2022-08-20T12:06:32.553Z,2.00
2022-08-20T12:07:32.553Z,2.00
2022-08-20T12:08:32.533Z,1.40
2022-08-20T12:09:32.519Z,2.00
2022-08-20T12:10:32.513Z,1.80
2022-08-20T12:11:32.517Z,2.00
2022-08-20T12:12:32.507Z,2.10
2022-08-20T12:13:48.425Z,1.50
2022-08-20T12:14:32.481Z,2.00
2022-08-20T12:15:32.459Z,2.10
2022-08-20T12:16:32.452Z,1.90
2022-08-20T12:17:32.452Z,2.20
2022-08-20T12:18:32.434Z,2.40
2022-08-20T12:19:32.418Z,2.30
2022-08-20T12:20:32.411Z,1.80
2022-08-20T12:21:32.623Z,1.80
2022-08-20T12:22:32.396Z,2.20
2022-08-20T12:23:32.381Z,1.80
2022-08-20T12:24:32.374Z,2.20
2022-08-20T12:25:32.357Z,1.70
2022-08-20T12:26:32.358Z,2.30
2022-08-20T12:27:32.360Z,1.80
2022-08-20T12:28:32.336Z,2.40
2022-08-20T12:29:32.321Z,2.10
2022-08-20T12:30:32.333Z,2.10
2022-08-20T12:31:32.314Z,2.30
2022-08-20T12:32:32.305Z,2.10
2022-08-20T12:33:32.282Z,2.10
2022-08-20T12:34:32.276Z,1.80
2022-08-20T12:35:32.267Z,2.00
2022-08-20T12:36:32.271Z,1.90
2022-08-20T12:37:32.241Z,1.80
2022-08-20T12:38:32.236Z,1.80
2022-08-20T12:39:32.224Z,1.80
2022-08-20T12:40:33.204Z,1.60
2022-08-20T12:41:32.218Z,1.60
2022-08-20T12:42:32.198Z,1.70
2022-08-20T12:43:32.184Z,1.80
2022-08-20T12:44:32.179Z,1.80
2022-08-20T12:45:32.163Z,2.00
2022-08-20T12:46:32.195Z,2.50
2022-08-20T12:47:32.145Z,2.00
2022-08-20T12:48:32.137Z,2.50
2022-08-20T12:49:32.122Z,2.40
2022-08-20T12:50:32.169Z,1.80
2022-08-20T12:51:32.120Z,2.30
2022-08-20T12:52:32.182Z,2.20
2022-08-20T12:53:32.082Z,2.00
2022-08-20T12:54:32.084Z,2.30
2022-08-20T12:55:32.068Z,2.00
2022-08-20T12:56:32.075Z,2.20
2022-08-20T12:57:32.046Z,1.80
2022-08-20T12:58:32.040Z,1.80
2022-08-20T12:59:32.023Z,2.30
2022-08-20T13:00:32.018Z,2.30
2022-08-20T13:01:32.125Z,2.80
2022-08-20T13:02:32.003Z,1.50
2022-08-20T13:03:32.298Z,2.60
2022-08-20T13:04:31.981Z,2.50
2022-08-20T13:05:31.983Z,2.30
2022-08-20T13:06:31.961Z,3.00
2022-08-20T13:07:31.946Z,2.30
2022-08-20T13:08:31.949Z,1.90
2022-08-20T13:09:31.930Z,2.20
2022-08-20T13:10:31.938Z,2.00
2022-08-20T13:11:31.918Z,2.30
2022-08-20T13:12:31.903Z,2.00
2022-08-20T13:13:31.891Z,1.90
2022-08-20T13:14:31.884Z,2.00
2022-08-20T13:15:31.888Z,1.60
2022-08-20T13:16:31.865Z,1.60
2022-08-20T13:17:31.856Z,1.80
2022-08-20T13:18:31.852Z,1.10